Time;durP1;ratioP1;P1;durP2;ratioP2;P2;SDS_P1;SDS_P2;PMS_P1;PMS_P2;Temp;Humidity;BMP_temperature;BMP_pressure;BME280_temperature;BME280_humidity;BME280_pressure;Samples;Min_cycle;Max_cycle;Signal;HPM_P1;HPM_P2
2022/07/21 00:01:11;;;;;;;7.57;4.50;;;23.00;99.90;;;;;;5099339;28;20032;-74
2022/07/21 00:03:37;;;;;;;7.07;4.20;;;23.00;99.90;;;;;;5099430;28;20051;-74
2022/07/21 00:06:03;;;;;;;7.40;4.65;;;23.00;99.90;;;;;;5099643;28;20101;-74
2022/07/21 00:08:29;;;;;;;10.50;4.75;;;23.00;99.90;;;;;;5100099;28;20066;-74
2022/07/21 00:10:55;;;;;;;11.48;5.18;;;23.10;99.90;;;;;;5100145;28;20493;-74
2022/07/21 00:13:20;;;;;;;10.00;4.47;;;23.20;99.90;;;;;;5100002;28;20127;-74
2022/07/21 00:15:47;;;;;;;10.52;4.65;;;23.20;99.90;;;;;;5098935;28;20083;-74
2022/07/21 00:18:13;;;;;;;11.93;4.88;;;23.20;99.90;;;;;;5099178;28;20040;-74
2022/07/21 00:20:39;;;;;;;10.20;4.15;;;23.20;99.90;;;;;;5098986;28;20040;-74
2022/07/21 00:23:04;;;;;;;8.73;4.80;;;23.20;99.90;;;;;;5099673;28;20062;-74
2022/07/21 00:25:30;;;;;;;7.50;4.43;;;23.20;99.90;;;;;;5098951;28;20036;-74
2022/07/21 00:27:56;;;;;;;9.90;4.78;;;23.30;99.90;;;;;;5099452;28;20040;-74
2022/07/21 00:30:22;;;;;;;8.02;5.05;;;23.30;99.90;;;;;;5099752;28;20052;-74
2022/07/21 00:32:48;;;;;;;10.60;5.18;;;23.30;99.90;;;;;;5098806;28;20444;-74
2022/07/21 00:35:15;;;;;;;10.02;5.05;;;23.40;99.90;;;;;;5099177;28;20047;-74
2022/07/21 00:37:43;;;;;;;11.48;5.50;;;23.50;99.90;;;;;;5098010;28;20032;-75
2022/07/21 00:40:10;;;;;;;11.20;5.35;;;23.50;99.90;;;;;;5099514;28;20324;-74
2022/07/21 00:42:36;;;;;;;9.73;5.28;;;23.40;99.90;;;;;;5099650;28;20048;-74
2022/07/21 00:45:04;;;;;;;11.82;5.57;;;23.40;99.90;;;;;;5098521;28;20067;-74
2022/07/21 00:47:31;;;;;;;11.60;6.18;;;23.30;99.90;;;;;;5099595;28;20036;-74
2022/07/21 00:49:58;;;;;;;12.90;6.30;;;23.20;99.90;;;;;;5098121;28;20048;-74
2022/07/21 00:52:24;;;;;;;11.95;6.65;;;23.20;99.90;;;;;;5099252;28;20044;-74
2022/07/21 00:54:50;;;;;;;13.52;5.65;;;23.10;99.90;;;;;;5097898;28;20036;-74
2022/07/21 00:57:16;;;;;;;12.07;6.68;;;23.10;99.90;;;;;;5097934;28;20104;-75
2022/07/21 00:59:42;;;;;;;14.15;6.82;;;23.00;99.90;;;;;;5099027;28;20040;-75
2022/07/21 01:02:09;;;;;;;14.57;7.22;;;23.10;99.90;;;;;;5098224;28;20377;-75
2022/07/21 01:04:35;;;;;;;15.55;7.53;;;23.10;99.90;;;;;;5099141;28;20044;-75
2022/07/21 01:07:02;;;;;;;15.05;7.93;;;23.10;99.90;;;;;;5098512;28;20036;-76
2022/07/21 01:09:28;;;;;;;11.50;6.80;;;23.10;99.90;;;;;;5099199;28;20036;-75
2022/07/21 01:11:53;;;;;;;16.00;9.02;;;23.00;99.90;;;;;;5098972;28;20329;-75
2022/07/21 01:14:19;;;;;;;14.50;7.85;;;23.00;99.90;;;;;;5098974;28;20085;-75
2022/07/21 01:16:45;;;;;;;15.00;8.82;;;23.00;99.90;;;;;;5097852;28;20119;-76
2022/07/21 01:19:11;;;;;;;18.23;8.73;;;23.00;99.90;;;;;;5098711;28;20147;-76
2022/07/21 01:21:40;;;;;;;12.02;8.25;;;22.90;99.90;;;;;;5097759;28;20031;-76
2022/07/21 01:24:07;;;;;;;13.45;7.97;;;23.00;99.90;;;;;;5098737;28;20044;-76
2022/07/21 01:26:50;;;;;;;13.27;8.57;;;22.80;99.90;;;;;;5098742;28;20179;-76
2022/07/21 01:29:17;;;;;;;14.45;8.60;;;22.80;99.90;;;;;;5097473;28;20046;-76
2022/07/21 01:31:44;;;;;;;14.90;8.25;;;22.80;99.90;;;;;;5097381;28;20048;-76
2022/07/21 01:34:11;;;;;;;16.42;8.88;;;22.70;99.90;;;;;;5098112;28;20073;-77
2022/07/21 01:36:37;;;;;;;12.65;8.15;;;22.70;99.90;;;;;;5097923;28;20425;-76
2022/07/21 01:41:51;;;;;;;18.98;10.07;;;22.70;99.90;;;;;;5097283;28;20450;-77
2022/07/21 01:44:17;;;;;;;15.23;9.07;;;22.80;99.90;;;;;;5096798;28;20044;-76
2022/07/21 01:46:47;;;;;;;13.25;8.23;;;22.80;99.90;;;;;;5097948;28;20128;-77
2022/07/21 01:49:16;;;;;;;15.75;8.70;;;22.80;99.90;;;;;;5097355;28;20337;-77
2022/07/21 01:51:41;;;;;;;14.18;8.85;;;22.80;99.90;;;;;;5098092;28;20046;-77
2022/07/21 01:54:08;;;;;;;14.10;8.88;;;22.80;99.90;;;;;;5098044;28;20408;-76
2022/07/21 01:56:35;;;;;;;15.18;8.80;;;22.70;99.90;;;;;;5096853;28;20051;-76
2022/07/21 01:59:01;;;;;;;14.82;8.90;;;22.70;99.90;;;;;;5097787;28;20324;-77
2022/07/21 02:01:29;;;;;;;17.75;10.15;;;22.80;99.90;;;;;;5096700;28;20044;-76
2022/07/21 02:03:56;;;;;;;15.60;9.30;;;23.00;99.90;;;;;;5097670;28;20383;-75
2022/07/21 02:06:22;;;;;;;15.05;8.95;;;23.10;99.90;;;;;;5097445;28;20050;-75
2022/07/21 02:13:59;;;;;;;12.82;7.95;;;22.90;99.90;;;;;;5623515;22;20800;-71
2022/07/21 02:16:24;;;;;;;13.52;8.90;;;22.80;99.90;;;;;;5021920;28;20042;-71
2022/07/21 02:18:50;;;;;;;22.10;12.30;;;22.70;99.90;;;;;;5028607;28;20037;-71
2022/07/21 02:21:16;;;;;;;12.95;8.20;;;22.80;99.90;;;;;;5036273;28;20099;-71
2022/07/21 02:23:41;;;;;;;14.80;9.30;;;22.70;99.90;;;;;;5037066;28;20041;-71
2022/07/21 02:26:07;;;;;;;17.65;9.48;;;22.70;99.90;;;;;;5036969;28;20052;-71
2022/07/21 02:28:33;;;;;;;16.20;9.15;;;22.70;99.90;;;;;;5036820;28;20049;-71
2022/07/21 02:30:58;;;;;;;15.30;9.10;;;22.70;99.90;;;;;;5036015;28;20091;-71
2022/07/21 02:33:24;;;;;;;14.23;7.90;;;22.60;99.90;;;;;;5036820;28;20042;-71
2022/07/21 02:35:50;;;;;;;14.55;9.10;;;22.50;99.90;;;;;;5035977;28;20103;-71
2022/07/21 02:38:16;;;;;;;17.55;9.60;;;22.40;99.90;;;;;;5036069;28;20038;-71
2022/07/21 02:40:41;;;;;;;20.77;11.05;;;22.40;99.90;;;;;;5036565;28;20080;-71
2022/07/21 02:43:08;;;;;;;17.60;9.70;;;22.50;99.90;;;;;;5037188;28;20130;-71
2022/07/21 02:45:36;;;;;;;16.58;10.35;;;22.60;99.90;;;;;;5036877;28;20038;-71
2022/07/21 02:48:12;;;;;;;16.52;10.23;;;22.50;99.90;;;;;;5036841;28;20049;-71
2022/07/21 02:50:39;;;;;;;;;;;22.50;99.90;;;;;;5037411;28;20507;-71
2022/07/21 02:53:11;;;;;;;16.08;11.10;;;22.50;99.90;;;;;;5035680;28;20019;-71
2022/07/21 02:55:37;;;;;;;14.00;9.90;;;22.50;99.90;;;;;;5036782;28;20052;-71
2022/07/21 02:58:13;;;;;;;19.13;11.77;;;22.60;99.90;;;;;;5035646;28;20037;-71
2022/07/21 03:00:49;;;;;;;17.73;10.50;;;22.70;99.90;;;;;;5036397;28;20049;-72
2022/07/21 03:03:14;;;;;;;;;;;22.70;99.90;;;;;;5037300;28;20045;-71
2022/07/21 03:05:41;;;;;;;13.27;10.00;;;22.70;99.90;;;;;;5036813;28;19971;-71
2022/07/21 03:08:08;;;;;;;16.58;10.52;;;22.70;99.90;;;;;;5036631;28;20480;-71
2022/07/21 03:10:34;;;;;;;15.10;10.98;;;22.80;99.90;;;;;;5002307;28;20091;-71
2022/07/21 03:13:00;;;;;;;14.13;10.32;;;22.50;99.90;;;;;;5036160;28;20051;-72
2022/07/21 03:15:26;;;;;;;16.98;10.75;;;22.40;99.90;;;;;;5036303;28;20041;-71
2022/07/21 03:17:53;;;;;;;16.40;10.52;;;22.40;99.90;;;;;;5036770;28;20034;-71
2022/07/21 03:20:19;;;;;;;15.65;10.10;;;22.50;99.90;;;;;;5036428;28;20073;-71
2022/07/21 03:22:44;;;;;;;14.27;10.13;;;22.50;99.90;;;;;;5035742;28;20070;-71
2022/07/21 03:25:10;;;;;;;20.73;11.60;;;22.50;99.90;;;;;;5036247;28;20116;-71
2022/07/21 03:27:36;;;;;;;12.82;10.05;;;22.50;99.90;;;;;;5035485;28;20229;-72
2022/07/21 03:30:09;;;;;;;17.52;12.50;;;22.60;99.90;;;;;;5036239;28;20048;-71
2022/07/21 03:32:35;;;;;;;20.92;13.02;;;22.60;99.90;;;;;;5036652;28;20042;-71
2022/07/21 03:35:03;;;;;;;26.60;15.13;;;22.60;99.90;;;;;;5036250;28;20322;-71
2022/07/21 03:37:28;;;;;;;16.63;12.52;;;22.70;99.90;;;;;;5036049;28;20042;-71
2022/07/21 03:39:54;;;;;;;18.33;12.70;;;22.80;99.90;;;;;;5035644;28;20064;-71
2022/07/21 03:42:20;;;;;;;18.48;13.00;;;22.70;99.90;;;;;;5036118;28;20117;-71
2022/07/21 03:44:45;;;;;;;18.92;13.00;;;22.70;99.90;;;;;;5036473;28;20049;-71
2022/07/21 03:47:11;;;;;;;17.35;12.57;;;22.70;99.90;;;;;;5036229;28;20080;-71
2022/07/21 03:49:37;;;;;;;15.63;12.18;;;22.70;99.90;;;;;;5036394;28;20330;-71
2022/07/21 03:52:02;;;;;;;15.88;12.60;;;22.60;99.90;;;;;;5036203;28;20041;-71
2022/07/21 03:54:28;;;;;;;16.98;11.52;;;22.60;99.90;;;;;;5035944;28;20414;-71
2022/07/21 03:56:54;;;;;;;14.77;11.45;;;22.60;99.90;;;;;;5036283;28;20076;-71
2022/07/21 03:59:20;;;;;;;14.75;11.30;;;22.60;99.90;;;;;;5036164;28;20047;-71
2022/07/21 04:01:45;;;;;;;18.13;11.90;;;22.60;99.90;;;;;;5036362;28;20083;-71
2022/07/21 04:04:11;;;;;;;18.83;11.80;;;22.50;99.90;;;;;;5036020;28;20129;-71
2022/07/21 04:06:37;;;;;;;23.42;13.45;;;22.40;99.90;;;;;;5036262;28;20050;-71
2022/07/21 04:09:03;;;;;;;20.67;12.95;;;22.40;99.90;;;;;;5035582;28;20052;-71
2022/07/21 04:11:30;;;;;;;17.67;13.15;;;22.40;99.90;;;;;;5036130;28;20122;-72
2022/07/21 04:13:56;;;;;;;19.30;13.07;;;22.40;99.90;;;;;;5038862;28;20096;-71
2022/07/21 04:16:22;;;;;;;19.10;12.85;;;22.30;99.90;;;;;;5039552;28;20080;-71
2022/07/21 04:18:48;;;;;;;20.38;12.82;;;22.30;99.90;;;;;;5039836;28;20034;-71
2022/07/21 04:21:13;;;;;;;19.02;12.95;;;22.20;99.90;;;;;;5039608;28;20037;-71
2022/07/21 04:23:39;;;;;;;19.85;14.52;;;22.20;99.90;;;;;;5039609;28;20041;-71
2022/07/21 04:26:05;;;;;;;17.90;13.15;;;22.20;99.90;;;;;;5039444;28;20038;-72
2022/07/21 04:28:30;;;;;;;16.95;12.85;;;22.30;99.90;;;;;;5039423;28;20056;-71
2022/07/21 04:30:56;;;;;;;18.85;13.65;;;22.40;99.90;;;;;;5039560;28;20099;-71
2022/07/21 04:33:22;;;;;;;17.30;12.88;;;22.40;99.90;;;;;;5039494;28;20038;-71
2022/07/21 04:35:47;;;;;;;17.42;13.50;;;22.40;99.90;;;;;;5039277;28;20381;-71
2022/07/21 04:38:14;;;;;;;20.38;13.63;;;22.30;99.90;;;;;;5039183;28;20037;-72
2022/07/21 04:40:40;;;;;;;20.35;14.10;;;22.30;99.90;;;;;;5038947;28;20044;-71
2022/07/21 04:43:06;;;;;;;18.30;14.07;;;22.30;99.90;;;;;;5039413;28;20116;-71
2022/07/21 04:45:31;;;;;;;19.60;14.50;;;22.10;99.90;;;;;;5039203;28;20414;-72
2022/07/21 04:48:00;;;;;;;18.63;14.57;;;22.00;99.90;;;;;;5038933;28;20418;-72
2022/07/21 04:50:27;;;;;;;18.77;13.98;;;22.10;99.90;;;;;;5039193;28;20129;-71
2022/07/21 04:52:54;;;;;;;21.15;14.75;;;22.20;99.90;;;;;;5038816;28;20425;-71
2022/07/21 04:55:21;;;;;;;21.17;13.55;;;22.20;99.90;;;;;;5038917;28;20398;-71
2022/07/21 04:57:49;;;;;;;22.60;14.98;;;22.30;99.90;;;;;;5039128;28;20044;-71
2022/07/21 05:00:18;;;;;;;21.73;16.10;;;22.40;99.90;;;;;;5039013;28;20033;-71
2022/07/21 05:02:44;;;;;;;20.88;15.52;;;22.40;99.90;;;;;;5038924;28;20116;-71
2022/07/21 05:05:10;;;;;;;23.98;17.55;;;22.40;99.90;;;;;;5038965;28;20033;-71
2022/07/21 05:07:36;;;;;;;33.67;21.23;;;22.50;99.90;;;;;;5039062;28;20486;-71
2022/07/21 05:10:07;;;;;;;26.73;19.00;;;22.50;99.90;;;;;;5038335;28;20076;-71
2022/07/21 05:12:32;;;;;;;34.65;22.02;;;22.60;99.90;;;;;;5037856;28;20041;-72
2022/07/21 05:14:58;;;;;;;26.38;19.85;;;22.70;99.90;;;;;;5038165;28;20357;-71
2022/07/21 05:17:24;;;;;;;36.33;23.52;;;22.70;99.90;;;;;;5038627;28;20044;-71
2022/07/21 05:19:50;;;;;;;27.80;20.08;;;22.70;99.90;;;;;;5038436;28;20041;-71
2022/07/21 05:22:17;;;;;;;29.00;20.92;;;22.80;99.90;;;;;;5038617;28;20044;-71
2022/07/21 05:24:43;;;;;;;27.67;20.58;;;22.80;99.90;;;;;;5038488;28;20045;-71
2022/07/21 05:27:08;;;;;;;27.80;21.15;;;22.80;99.90;;;;;;5038231;28;20045;-71
2022/07/21 05:29:34;;;;;;;27.70;21.63;;;22.80;99.90;;;;;;5037548;28;20045;-71
2022/07/21 05:32:00;;;;;;;27.23;22.50;;;22.70;99.90;;;;;;5038218;28;20319;-71
2022/07/21 05:34:25;;;;;;;29.20;22.35;;;22.70;99.90;;;;;;5038315;28;20056;-71
2022/07/21 05:36:52;;;;;;;29.13;21.65;;;22.60;99.90;;;;;;5037071;28;20068;-71
2022/07/21 05:39:18;;;;;;;28.27;21.08;;;22.40;99.90;;;;;;5036890;28;20085;-71
2022/07/21 05:41:44;;;;;;;28.77;21.45;;;22.40;99.90;;;;;;5038256;28;20041;-71
2022/07/21 05:44:10;;;;;;;32.05;23.70;;;22.60;99.90;;;;;;5038181;28;20071;-71
2022/07/21 05:46:36;;;;;;;29.52;21.75;;;22.60;99.90;;;;;;5038016;28;20121;-70
2022/07/21 05:49:01;;;;;;;31.98;23.85;;;22.70;99.90;;;;;;5037781;28;20045;-71
2022/07/21 05:51:27;;;;;;;28.15;22.83;;;22.80;99.90;;;;;;5037620;28;20040;-71
2022/07/21 05:53:52;;;;;;;32.28;23.27;;;22.90;99.90;;;;;;5037532;28;20068;-71
2022/07/21 05:56:18;;;;;;;33.00;24.73;;;22.90;99.90;;;;;;5036911;28;20411;-70
2022/07/21 05:58:44;;;;;;;27.55;22.30;;;22.80;99.90;;;;;;5037770;28;20056;-71
2022/07/21 06:01:12;;;;;;;30.50;22.10;;;22.80;99.90;;;;;;5037813;28;20041;-71
2022/07/21 06:03:42;;;;;;;32.75;23.67;;;22.90;99.90;;;;;;5037771;28;20337;-71
2022/07/21 06:06:08;;;;;;;29.15;23.90;;;23.10;99.90;;;;;;5037768;28;20041;-71
2022/07/21 06:08:34;;;;;;;29.48;21.65;;;23.10;99.90;;;;;;5037829;28;20099;-71
2022/07/21 06:11:00;;;;;;;31.35;24.15;;;23.10;99.90;;;;;;5037136;28;20045;-71
2022/07/21 06:13:26;;;;;;;37.95;27.45;;;23.10;99.90;;;;;;5037487;28;20054;-71
2022/07/21 06:15:51;;;;;;;30.90;24.35;;;23.20;99.90;;;;;;5037432;28;20042;-71
2022/07/21 06:18:17;;;;;;;28.85;23.05;;;23.10;99.90;;;;;;5037663;28;20044;-71
2022/07/21 06:20:43;;;;;;;31.25;22.77;;;23.10;99.90;;;;;;5036241;28;20045;-72
2022/07/21 06:23:08;;;;;;;29.08;23.38;;;23.20;99.90;;;;;;5037247;28;20045;-71
2022/07/21 06:25:34;;;;;;;25.48;21.40;;;23.20;99.90;;;;;;5037500;28;20498;-71
2022/07/21 06:28:00;;;;;;;33.00;23.83;;;23.20;99.90;;;;;;5037377;28;20038;-71
2022/07/21 06:30:26;;;;;;;27.50;22.55;;;23.20;99.90;;;;;;5036454;28;20325;-71
2022/07/21 06:32:51;;;;;;;31.58;23.25;;;23.20;99.90;;;;;;5037024;28;20065;-71
2022/07/21 06:35:17;;;;;;;29.92;23.55;;;23.10;99.90;;;;;;5036487;28;20048;-72
2022/07/21 06:37:46;;;;;;;26.10;20.08;;;23.00;99.90;;;;;;5036873;28;20041;-71
2022/07/21 06:40:13;;;;;;;30.17;23.90;;;23.00;99.90;;;;;;5036770;28;20034;-71
2022/07/21 06:42:38;;;;;;;29.05;24.70;;;23.00;99.90;;;;;;5037196;28;20040;-71
2022/07/21 06:45:05;;;;;;;29.38;22.70;;;23.20;99.90;;;;;;5037070;28;20116;-71
2022/07/21 06:47:31;;;;;;;30.33;23.52;;;23.30;99.90;;;;;;5036878;28;20437;-71
2022/07/21 06:50:02;;;;;;;29.33;24.30;;;23.40;99.90;;;;;;5036699;28;20503;-71
2022/07/21 06:52:33;;;;;;;28.63;23.45;;;23.60;99.90;;;;;;5037117;28;20045;-71
2022/07/21 06:54:59;;;;;;;35.40;24.35;;;23.50;99.90;;;;;;5036726;28;20125;-70
2022/07/21 06:57:25;;;;;;;28.17;23.02;;;23.30;99.90;;;;;;5037043;28;20064;-71
2022/07/21 06:59:51;;;;;;;29.70;23.60;;;23.20;99.90;;;;;;5036647;28;20040;-71
2022/07/21 07:02:17;;;;;;;35.65;27.00;;;23.10;99.90;;;;;;5036880;28;20042;-70
2022/07/21 07:04:43;;;;;;;35.63;26.95;;;22.90;99.90;;;;;;5036849;28;20052;-71
2022/07/21 07:07:09;;;;;;;33.00;25.35;;;22.90;99.90;;;;;;5036710;28;20052;-71
2022/07/21 07:09:35;;;;;;;34.10;26.08;;;22.90;99.90;;;;;;5035153;28;20049;-71
2022/07/21 07:12:03;;;;;;;33.70;25.27;;;23.00;99.90;;;;;;5036559;28;20041;-70
2022/07/21 07:14:33;;;;;;;36.15;26.98;;;23.00;99.90;;;;;;5036416;28;20168;-70
2022/07/21 07:17:01;;;;;;;32.05;24.23;;;22.90;99.90;;;;;;5036371;28;20049;-71
2022/07/21 07:19:27;;;;;;;31.80;23.77;;;22.70;99.90;;;;;;5036400;28;20055;-71
2022/07/21 07:21:54;;;;;;;30.38;23.05;;;22.60;99.90;;;;;;5036655;28;20049;-71
2022/07/21 07:24:20;;;;;;;33.60;23.35;;;22.30;99.90;;;;;;5035425;28;20049;-71
2022/07/21 07:26:47;;;;;;;30.17;23.77;;;22.20;99.90;;;;;;5036423;28;20076;-71
2022/07/21 07:29:13;;;;;;;30.70;23.05;;;22.20;99.90;;;;;;5036532;28;20091;-70
2022/07/21 07:31:39;;;;;;;30.50;24.52;;;22.30;99.90;;;;;;5036554;28;20045;-71
2022/07/21 07:34:06;;;;;;;29.75;23.08;;;22.40;99.90;;;;;;5036117;28;20042;-71
2022/07/21 07:36:31;;;;;;;29.40;23.15;;;22.40;99.90;;;;;;5036274;28;20442;-71
2022/07/21 07:38:57;;;;;;;30.25;23.85;;;22.50;99.90;;;;;;5035301;28;20051;-71
2022/07/21 07:41:25;;;;;;;37.47;27.70;;;22.60;99.90;;;;;;5035701;28;20436;-71
2022/07/21 07:43:52;;;;;;;32.53;25.65;;;22.80;99.90;;;;;;5036326;28;20041;-70
2022/07/21 07:46:19;;;;;;;29.15;23.50;;;22.70;99.90;;;;;;5018561;28;20354;-71
2022/07/21 07:48:45;;;;;;;32.75;25.05;;;22.80;99.90;;;;;;5038955;28;20045;-71
2022/07/21 07:51:11;;;;;;;29.90;24.63;;;22.70;99.90;;;;;;5040150;28;20052;-71
2022/07/21 07:53:38;;;;;;;33.05;25.23;;;22.70;99.90;;;;;;5040208;28;20041;-71
2022/07/21 07:56:04;;;;;;;35.15;27.83;;;22.80;99.90;;;;;;5039969;28;20303;-71
2022/07/21 07:58:30;;;;;;;31.25;25.38;;;22.70;99.90;;;;;;5039850;28;20041;-71
2022/07/21 08:00:56;;;;;;;35.33;27.23;;;22.70;99.90;;;;;;5039632;28;20033;-71
2022/07/21 08:03:23;;;;;;;32.17;25.85;;;22.80;99.90;;;;;;5038943;28;20041;-71
2022/07/21 08:05:49;;;;;;;28.67;22.75;;;22.80;99.90;;;;;;5039964;28;20041;-71
2022/07/21 08:08:16;;;;;;;28.20;22.42;;;22.90;99.90;;;;;;5039693;28;20115;-71
2022/07/21 08:10:43;;;;;;;34.90;27.23;;;22.90;99.90;;;;;;5039341;28;20080;-71
2022/07/21 08:13:11;;;;;;;34.22;27.70;;;23.00;99.90;;;;;;5039289;28;20128;-71
2022/07/21 08:15:37;;;;;;;30.02;23.05;;;23.10;99.90;;;;;;5039719;28;20091;-71
2022/07/21 08:18:03;;;;;;;28.55;23.25;;;23.00;99.90;;;;;;5039804;28;20061;-71
2022/07/21 08:20:29;;;;;;;28.67;22.00;;;22.90;99.90;;;;;;5039663;28;20048;-71
2022/07/21 08:22:55;;;;;;;31.33;23.33;;;23.00;99.90;;;;;;5038670;28;20389;-71
2022/07/21 08:25:21;;;;;;;28.77;22.17;;;23.20;99.90;;;;;;5039482;28;20518;-71
2022/07/21 08:27:46;;;;;;;28.40;22.08;;;23.30;99.90;;;;;;5039487;28;20038;-71
2022/07/21 08:30:13;;;;;;;30.63;24.45;;;23.40;99.90;;;;;;5038130;28;20069;-71
2022/07/21 08:32:40;;;;;;;27.75;22.08;;;23.60;99.90;;;;;;5039524;28;20044;-71
2022/07/21 08:35:08;;;;;;;27.40;23.65;;;23.70;99.90;;;;;;5038034;28;20121;-71
2022/07/21 08:37:35;;;;;;;31.67;24.13;;;23.70;99.90;;;;;;5038170;28;20037;-72
2022/07/21 08:40:03;;;;;;;26.70;21.52;;;23.70;99.90;;;;;;5038927;28;20437;-71
2022/07/21 08:42:30;;;;;;;29.63;22.40;;;23.70;99.90;;;;;;5038304;28;20125;-71
2022/07/21 08:44:55;;;;;;;25.77;21.45;;;23.70;99.90;;;;;;5039351;28;20338;-71
2022/07/21 08:47:21;;;;;;;28.15;22.75;;;23.90;99.90;;;;;;5039177;28;20121;-71
2022/07/21 08:49:47;;;;;;;28.10;23.20;;;23.70;99.90;;;;;;5039390;28;20068;-71
2022/07/21 08:52:13;;;;;;;28.67;22.98;;;23.50;99.90;;;;;;5038972;28;20033;-71
2022/07/21 08:54:38;;;;;;;29.88;22.85;;;23.60;99.90;;;;;;5037901;28;20038;-71
2022/07/21 08:57:04;;;;;;;30.08;24.10;;;23.70;99.90;;;;;;5038761;28;20041;-71
2022/07/21 08:59:30;;;;;;;30.88;22.33;;;23.70;99.90;;;;;;5038123;28;20041;-71
2022/07/21 09:01:56;;;;;;;27.35;22.27;;;24.00;99.90;;;;;;5038960;28;20038;-71
2022/07/21 09:04:28;;;;;;;28.05;23.55;;;24.10;99.90;;;;;;5037622;28;20080;-71
2022/07/21 09:07:03;;;;;;;31.17;23.73;;;24.00;99.90;;;;;;5039118;28;20045;-71
2022/07/21 09:09:30;;;;;;;28.25;22.15;;;23.90;99.90;;;;;;5038310;28;20042;-71
2022/07/21 09:11:56;;;;;;;30.65;23.08;;;23.60;99.90;;;;;;5038575;28;20049;-71
2022/07/21 09:14:26;;;;;;;29.27;22.05;;;23.70;99.90;;;;;;5038247;28;20092;-71
2022/07/21 09:16:54;;;;;;;30.58;23.48;;;23.90;99.90;;;;;;5038633;28;20049;-71
2022/07/21 09:19:28;;;;;;;32.35;24.83;;;24.00;99.90;;;;;;5037837;28;20045;-71
2022/07/21 09:21:59;;;;;;;39.70;29.02;;;24.20;99.90;;;;;;5038351;28;20037;-71
2022/07/21 09:24:33;;;;;;;36.70;28.13;;;24.40;99.90;;;;;;5038322;28;20041;-71
2022/07/21 09:29:45;;;;;;;37.13;29.30;;;24.60;99.90;;;;;;5010345;28;20111;-75
2022/07/21 09:32:18;;;;;;;38.40;28.63;;;24.80;99.90;;;;;;4985280;28;20133;-75
2022/07/21 09:34:46;;;;;;;38.42;29.08;;;24.90;99.90;;;;;;5018374;28;20048;-76
2022/07/21 09:37:12;;;;;;;38.95;30.50;;;25.20;99.90;;;;;;5000906;28;20046;-75
2022/07/21 09:39:47;;;;;;;40.28;31.33;;;25.40;99.90;;;;;;5000407;28;20049;-75
2022/07/21 09:42:13;;;;;;;36.38;28.48;;;25.00;99.90;;;;;;5001006;28;20046;-75
2022/07/21 09:44:43;;;;;;;38.15;27.80;;;24.80;99.90;;;;;;5018410;28;20063;-75
2022/07/21 09:47:17;;;;;;;38.42;30.10;;;25.00;99.90;;;;;;5018175;28;20050;-77
2022/07/21 09:49:43;;;;;;;34.72;27.77;;;25.20;99.90;;;;;;5000761;28;20050;-75
2022/07/21 09:52:29;;;;;;;34.65;28.58;;;25.20;99.90;;;;;;5001033;28;20087;-75
2022/07/21 09:55:01;;;;;;;35.83;29.02;;;25.50;99.90;;;;;;5018324;28;20398;-75
2022/07/21 09:57:27;;;;;;;35.80;26.45;;;25.30;99.90;;;;;;5017920;28;20312;-75
2022/07/21 09:59:54;;;;;;;36.90;28.08;;;25.60;99.90;;;;;;5017829;28;20034;-75
2022/07/21 10:02:25;;;;;;;36.72;29.67;;;25.50;99.90;;;;;;5016936;28;20037;-76
2022/07/21 10:05:05;;;;;;;38.28;29.23;;;25.40;99.90;;;;;;5017860;28;20493;-76
2022/07/21 10:07:33;;;;;;;40.42;29.65;;;25.00;99.90;;;;;;5000557;28;20050;-75
2022/07/21 10:09:59;;;;;;;40.97;28.00;;;25.00;99.90;;;;;;5016588;28;20050;-75
2022/07/21 10:12:27;;;;;;;38.10;28.35;;;24.80;99.90;;;;;;5000315;28;20045;-75
2022/07/21 10:14:54;;;;;;;38.58;28.33;;;24.90;99.90;;;;;;5000255;28;20053;-75
2022/07/21 10:17:22;;;;;;;46.75;30.73;;;24.80;99.90;;;;;;5017750;28;20049;-76
2022/07/21 10:20:18;;;;;;;42.17;29.73;;;24.60;99.90;;;;;;5017537;28;20430;-75
2022/07/21 10:23:07;;;;;;;40.60;30.65;;;24.50;99.90;;;;;;5017703;28;20109;-76
2022/07/21 10:25:34;;;;;;;41.70;30.63;;;24.60;99.90;;;;;;5009840;28;20053;-75
2022/07/21 10:28:17;;;;;;;47.22;33.95;;;24.80;99.90;;;;;;5017374;28;20061;-76
2022/07/21 10:30:45;;;;;;;46.53;32.78;;;25.00;99.90;;;;;;5017458;28;20084;-75
2022/07/21 10:33:18;;;;;;;48.50;32.72;;;24.90;99.90;;;;;;5017083;28;20401;-76
2022/07/21 10:35:46;;;;;;;46.47;32.60;;;25.10;99.90;;;;;;5000007;28;20038;-76
2022/07/21 10:38:32;;;;;;;37.13;28.60;;;25.00;99.90;;;;;;4999997;28;20116;-75
2022/07/21 10:40:59;;;;;;;39.13;28.75;;;25.20;99.90;;;;;;5016865;28;20038;-75
2022/07/21 10:43:25;;;;;;;35.10;27.10;;;25.40;99.90;;;;;;5017181;28;20042;-75
2022/07/21 10:45:51;;;;;;;37.50;27.17;;;25.50;99.90;;;;;;5017190;28;20046;-76
2022/07/21 10:48:44;;;;;;;37.78;27.60;;;25.30;99.90;;;;;;5000021;28;20327;-75
2022/07/21 10:51:11;;;;;;;32.42;23.23;;;24.90;99.90;;;;;;4999935;28;20076;-75
2022/07/21 10:53:37;;;;;;;30.85;23.48;;;25.00;99.90;;;;;;5016973;28;20041;-75
2022/07/21 10:56:04;;;;;;;28.85;22.20;;;25.30;99.90;;;;;;4999781;28;20069;-76
2022/07/21 10:58:37;;;;;;;29.52;19.92;;;25.00;99.90;;;;;;5016925;28;20415;-75
2022/07/21 11:01:14;;;;;;;28.08;19.50;;;24.80;99.90;;;;;;5016951;28;20052;-75
2022/07/21 11:03:42;;;;;;;28.27;18.08;;;24.90;99.90;;;;;;4999422;28;20331;-75
2022/07/21 11:06:22;;;;;;;25.17;18.08;;;24.80;99.90;;;;;;5016811;28;20183;-75
2022/07/21 11:08:49;;;;;;;31.77;19.60;;;24.90;99.90;;;;;;5017009;28;20065;-75
2022/07/21 11:11:25;;;;;;;34.05;22.70;;;25.20;99.90;;;;;;4998943;28;20046;-76
2022/07/21 11:13:58;;;;;;;30.95;21.75;;;25.00;99.90;;;;;;5016866;28;20042;-76
2022/07/21 11:16:48;;;;;;;34.05;23.98;;;24.70;99.90;;;;;;4999316;28;20121;-75
2022/07/21 11:19:29;;;;;;;30.40;22.58;;;24.40;99.90;;;;;;4999170;28;20060;-76
2022/07/21 11:21:57;;;;;;;32.08;23.10;;;24.50;99.90;;;;;;4999471;28;20046;-75
2022/07/21 11:24:25;;;;;;;36.85;24.83;;;24.60;99.90;;;;;;5016636;28;20038;-75
2022/07/21 11:27:18;;;;;;;31.80;23.60;;;24.70;99.90;;;;;;5016903;28;20373;-76
2022/07/21 11:29:45;;;;;;;36.58;24.95;;;25.50;99.90;;;;;;5014696;28;20426;-75
2022/07/21 11:32:13;;;;;;;35.10;25.23;;;25.90;99.90;;;;;;5016747;28;20053;-76
2022/07/21 11:34:41;;;;;;;29.35;21.52;;;26.20;99.90;;;;;;4999001;28;20053;-75
2022/07/21 11:37:07;;;;;;;27.88;22.23;;;26.30;99.90;;;;;;4999145;28;20350;-76
2022/07/21 11:39:33;;;;;;;30.08;24.40;;;26.60;99.90;;;;;;5016227;28;20038;-75
2022/07/21 11:42:09;;;;;;;29.73;24.23;;;26.80;99.90;;;;;;5016390;28;20041;-76
2022/07/21 11:44:36;;;;;;;31.65;24.48;;;26.60;99.90;;;;;;5016518;28;20034;-75
2022/07/21 11:47:04;;;;;;;32.75;23.08;;;26.80;99.90;;;;;;4998894;28;20462;-75
2022/07/21 11:49:31;;;;;;;32.85;24.38;;;26.40;99.90;;;;;;5016400;28;20430;-75
2022/07/21 11:52:03;;;;;;;32.40;23.30;;;26.40;99.90;;;;;;5016659;28;20064;-75
2022/07/21 11:54:42;;;;;;;26.38;18.95;;;26.30;99.90;;;;;;5016405;28;20411;-75
2022/07/21 11:57:09;;;;;;;22.17;18.25;;;26.10;99.90;;;;;;5016591;28;20041;-75
2022/07/21 11:59:38;;;;;;;20.48;16.33;;;26.30;99.90;;;;;;5016384;28;20038;-75
2022/07/21 12:02:13;;;;;;;23.02;17.80;;;26.40;99.90;;;;;;5016630;28;20113;-75
2022/07/21 12:04:45;;;;;;;;;;;26.80;99.90;;;;;;4999409;28;20125;-75
2022/07/21 12:07:13;;;;;;;23.58;16.75;;;26.80;99.90;;;;;;5016140;28;19917;-75
2022/07/21 12:09:41;;;;;;;17.85;15.00;;;26.90;99.90;;;;;;5016090;28;20049;-75
2022/07/21 12:12:07;;;;;;;15.13;11.93;;;26.90;99.90;;;;;;5016243;28;20042;-75
2022/07/21 12:14:41;;;;;;;15.48;11.00;;;27.00;99.90;;;;;;4999057;28;20050;-76
2022/07/21 12:17:07;;;;;;;12.57;9.25;;;26.60;99.90;;;;;;5016138;28;20038;-75
2022/07/21 12:19:32;;;;;;;13.52;10.73;;;26.20;99.90;;;;;;5016096;28;20435;-75
2022/07/21 12:21:59;;;;;;;15.30;10.95;;;25.70;99.90;;;;;;5016116;28;20030;-75
2022/07/21 12:24:49;;;;;;;11.30;8.57;;;25.30;99.90;;;;;;4998662;28;20057;-76
2022/07/21 12:27:16;;;;;;;13.70;8.32;;;25.40;99.90;;;;;;5015830;28;20465;-76
2022/07/21 12:29:42;;;;;;;15.35;11.27;;;25.50;99.90;;;;;;5031814;28;20046;-75
2022/07/21 12:32:08;;;;;;;10.95;9.55;;;25.90;99.90;;;;;;4998993;28;20454;-75
2022/07/21 12:34:48;;;;;;;9.98;8.10;;;26.10;99.90;;;;;;5018269;28;20045;-75
2022/07/21 12:37:14;;;;;;;8.45;6.50;;;25.90;99.90;;;;;;5002410;28;20327;-76
2022/07/21 12:39:58;;;;;;;8.00;7.15;;;25.90;99.90;;;;;;5018960;28;20037;-76
2022/07/21 12:42:32;;;;;;;9.95;7.57;;;26.20;99.90;;;;;;5019254;28;20034;-76
2022/07/21 12:44:59;;;;;;;14.68;9.57;;;26.50;99.90;;;;;;5019627;28;20049;-75